Time;durP1;ratioP1;P1;durP2;ratioP2;P2;SDS_P1;SDS_P2;PMS_P1;PMS_P2;Temp;Humidity;BMP_temperature;BMP_pressure;BME280_temperature;BME280_humidity;BME280_pressure;Samples;Min_cycle;Max_cycle;Signal;HPM_P1;HPM_P2
2021/05/21 00:01:50;;;;;;;0.60;0.60;;;;;;;;;;5039165;28;20410;-61
2021/05/21 00:04:15;;;;;;;0.88;0.50;;;;;;;;;;5032558;28;20054;-61
2021/05/21 00:06:41;;;;;;;1.77;0.68;;;;;;;;;;5031417;28;20045;-61
2021/05/21 00:09:07;;;;;;;0.80;0.50;;;;;;;;;;5030739;28;20045;-61
2021/05/21 00:11:33;;;;;;;0.73;0.52;;;;;;;;;;5030351;28;20037;-61
2021/05/21 00:13:58;;;;;;;1.60;0.60;;;;;;;;;;5032470;28;20472;-62
2021/05/21 00:16:23;;;;;;;0.82;0.50;;;;;;;;;;5031484;28;20042;-61
2021/05/21 00:18:51;;;;;;;1.75;0.50;;;;;;;;;;5031903;28;20041;-62
2021/05/21 00:21:16;;;;;;;0.80;0.50;;;;;;;;;;5061771;28;20044;-61
2021/05/21 00:23:42;;;;;;;0.63;0.50;;;;;;;;;;5028454;28;26370;-61
2021/05/21 00:26:07;;;;;;;0.80;0.40;;;;;;;;;;5032325;28;20063;-61
2021/05/21 00:28:33;;;;;;;0.50;0.40;;;;;;;;;;5033019;28;25703;-61
2021/05/21 00:30:58;;;;;;;0.52;0.40;;;;;;;;;;5037496;28;20113;-61
2021/05/21 00:33:24;;;;;;;0.32;0.32;;;;;;;;;;5030991;28;20053;-61
2021/05/21 00:35:49;;;;;;;0.57;0.47;;;;;;;;;;5031697;28;20037;-61
2021/05/21 00:38:15;;;;;;;0.63;0.40;;;;;;;;;;5030871;28;20041;-61
2021/05/21 00:40:40;;;;;;;1.10;0.50;;;;;;;;;;5029149;28;20070;-61
2021/05/21 00:43:06;;;;;;;0.60;0.50;;;;;;;;;;5028242;28;20044;-61
2021/05/21 00:45:31;;;;;;;0.68;0.43;;;;;;;;;;5030110;28;20064;-61
2021/05/21 00:47:57;;;;;;;0.98;0.55;;;;;;;;;;5032196;28;20048;-61
2021/05/21 00:50:22;;;;;;;0.43;0.30;;;;;;;;;;5029880;28;20042;-61
2021/05/21 00:52:48;;;;;;;0.32;0.30;;;;;;;;;;5031242;28;20026;-61
2021/05/21 00:55:13;;;;;;;1.13;0.55;;;;;;;;;;5012094;28;20478;-61
2021/05/21 00:57:41;;;;;;;0.80;0.40;;;;;;;;;;5028844;28;20125;-61
2021/05/21 01:00:07;;;;;;;1.10;0.50;;;;;;;;;;5031266;28;20525;-61
2021/05/21 01:02:33;;;;;;;0.93;0.40;;;;;;;;;;5025705;28;20044;-61
2021/05/21 01:04:58;;;;;;;0.50;0.50;;;;;;;;;;5012377;28;20459;-62
2021/05/21 01:07:24;;;;;;;0.93;0.47;;;;;;;;;;5021996;28;20053;-61
2021/05/21 01:09:50;;;;;;;1.00;0.40;;;;;;;;;;5039015;28;20057;-61
2021/05/21 01:12:16;;;;;;;0.55;0.40;;;;;;;;;;5061798;28;20038;-61
2021/05/21 01:14:52;;;;;;;1.10;0.60;;;;;;;;;;5031661;28;20617;-61
2021/05/21 01:17:18;;;;;;;0.98;0.40;;;;;;;;;;5030545;28;20072;-61
2021/05/21 01:19:43;;;;;;;0.30;0.30;;;;;;;;;;5030790;28;20972;-61
2021/05/21 01:22:09;;;;;;;0.65;0.47;;;;;;;;;;5030968;28;20038;-62
2021/05/21 01:24:34;;;;;;;0.50;0.40;;;;;;;;;;5030963;28;21110;-61
2021/05/21 01:27:01;;;;;;;0.68;0.50;;;;;;;;;;5029099;28;20465;-61
2021/05/21 01:29:27;;;;;;;0.60;0.40;;;;;;;;;;5030480;28;20585;-61
2021/05/21 01:31:53;;;;;;;0.70;0.50;;;;;;;;;;5032125;28;20306;-61
2021/05/21 01:34:18;;;;;;;0.80;0.57;;;;;;;;;;5028638;28;20482;-61
2021/05/21 01:36:44;;;;;;;1.38;0.60;;;;;;;;;;5028314;28;20034;-61
2021/05/21 01:39:10;;;;;;;1.25;0.40;;;;;;;;;;5028890;28;20038;-61
2021/05/21 01:41:39;;;;;;;0.90;0.60;;;;;;;;;;5062757;28;20107;-61
2021/05/21 01:44:06;;;;;;;0.40;0.35;;;;;;;;;;5030031;28;20089;-61
2021/05/21 01:46:31;;;;;;;0.75;0.60;;;;;;;;;;5062680;28;20105;-61
2021/05/21 01:48:57;;;;;;;1.10;0.50;;;;;;;;;;5049220;28;20034;-61
2021/05/21 01:51:22;;;;;;;0.47;0.40;;;;;;;;;;5031743;28;20041;-61
2021/05/21 01:53:47;;;;;;;0.65;0.45;;;;;;;;;;5031873;28;20644;-61
2021/05/21 01:56:13;;;;;;;1.00;0.52;;;;;;;;;;5021233;28;20085;-61
2021/05/21 01:58:38;;;;;;;0.75;0.40;;;;;;;;;;5028025;28;20079;-61
2021/05/21 02:01:04;;;;;;;0.40;0.40;;;;;;;;;;5029871;28;20220;-61
2021/05/21 02:03:30;;;;;;;0.63;0.47;;;;;;;;;;5030029;28;20421;-61
2021/05/21 02:05:56;;;;;;;2.05;0.50;;;;;;;;;;5030964;28;20045;-61
2021/05/21 02:08:23;;;;;;;0.50;0.40;;;;;;;;;;5030691;28;20046;-61
2021/05/21 02:10:49;;;;;;;0.57;0.30;;;;;;;;;;5046950;28;20129;-61
2021/05/21 02:13:14;;;;;;;0.40;0.40;;;;;;;;;;5033160;28;20039;-61
2021/05/21 02:15:40;;;;;;;1.13;0.40;;;;;;;;;;5034155;28;20038;-61
2021/05/21 02:18:05;;;;;;;1.77;0.40;;;;;;;;;;5036403;28;20045;-61
2021/05/21 02:20:31;;;;;;;0.73;0.40;;;;;;;;;;5035623;28;20084;-61
2021/05/21 02:22:57;;;;;;;0.57;0.30;;;;;;;;;;5032920;28;20038;-61
2021/05/21 02:25:23;;;;;;;0.73;0.40;;;;;;;;;;5034005;28;20134;-61
2021/05/21 02:27:50;;;;;;;1.27;0.40;;;;;;;;;;5065246;28;20046;-61
2021/05/21 02:30:16;;;;;;;1.23;0.55;;;;;;;;;;5065987;28;20152;-61
2021/05/21 02:32:42;;;;;;;0.90;0.47;;;;;;;;;;5041068;28;20580;-61
2021/05/21 02:35:08;;;;;;;0.40;0.40;;;;;;;;;;5041196;28;20043;-61
2021/05/21 02:37:33;;;;;;;1.67;0.50;;;;;;;;;;5048496;28;20072;-61
2021/05/21 02:39:59;;;;;;;0.45;0.38;;;;;;;;;;5032013;28;20822;-61
2021/05/21 02:42:24;;;;;;;0.73;0.45;;;;;;;;;;5033545;28;26190;-61
2021/05/21 02:44:50;;;;;;;1.67;0.57;;;;;;;;;;5031971;28;20409;-61
2021/05/21 02:47:15;;;;;;;0.60;0.40;;;;;;;;;;5031933;28;20040;-61
2021/05/21 02:49:41;;;;;;;0.73;0.52;;;;;;;;;;5033398;28;20119;-61
2021/05/21 02:52:06;;;;;;;1.20;0.38;;;;;;;;;;5047372;28;20053;-61
2021/05/21 02:54:32;;;;;;;1.75;0.43;;;;;;;;;;5031942;28;20810;-62
2021/05/21 02:56:57;;;;;;;0.70;0.40;;;;;;;;;;5031545;28;20121;-61
2021/05/21 02:59:23;;;;;;;0.65;0.52;;;;;;;;;;5033824;28;20095;-61
2021/05/21 03:01:48;;;;;;;0.80;0.60;;;;;;;;;;5032786;28;20037;-61
2021/05/21 03:04:14;;;;;;;0.55;0.50;;;;;;;;;;5032941;28;27993;-61
2021/05/21 03:06:39;;;;;;;0.32;0.32;;;;;;;;;;5065968;28;20391;-61
2021/05/21 03:09:05;;;;;;;0.50;0.50;;;;;;;;;;5034092;28;20738;-61
2021/05/21 03:11:31;;;;;;;0.47;0.47;;;;;;;;;;5032802;28;20038;-61
2021/05/21 03:13:56;;;;;;;0.82;0.32;;;;;;;;;;5029306;28;25898;-61
2021/05/21 03:16:22;;;;;;;0.82;0.40;;;;;;;;;;5031667;28;20034;-61
2021/05/21 03:18:47;;;;;;;0.70;0.40;;;;;;;;;;5038133;28;20117;-61
2021/05/21 03:21:13;;;;;;;1.05;0.57;;;;;;;;;;5029062;28;20046;-61
2021/05/21 03:23:38;;;;;;;0.73;0.30;;;;;;;;;;5021698;28;20042;-61
2021/05/21 03:26:04;;;;;;;1.08;0.60;;;;;;;;;;5030309;28;20610;-61
2021/05/21 03:28:29;;;;;;;1.80;0.50;;;;;;;;;;5040074;28;20049;-61
2021/05/21 03:30:55;;;;;;;0.30;0.30;;;;;;;;;;5032909;28;20544;-61
2021/05/21 03:33:20;;;;;;;1.20;0.40;;;;;;;;;;5028204;28;20149;-61
2021/05/21 03:35:46;;;;;;;0.77;0.38;;;;;;;;;;5030192;28;20512;-61
2021/05/21 03:38:11;;;;;;;0.88;0.30;;;;;;;;;;5013754;28;20030;-61
2021/05/21 03:40:37;;;;;;;1.08;0.60;;;;;;;;;;5065422;28;20038;-61
2021/05/21 03:43:03;;;;;;;1.25;0.40;;;;;;;;;;5033399;28;20117;-61
2021/05/21 03:45:29;;;;;;;0.63;0.30;;;;;;;;;;5045560;28;20041;-61
2021/05/21 03:47:54;;;;;;;0.47;0.30;;;;;;;;;;5031392;28;20053;-61
2021/05/21 03:50:21;;;;;;;1.05;0.43;;;;;;;;;;5063344;28;20033;-61
2021/05/21 03:52:47;;;;;;;0.93;0.50;;;;;;;;;;5029882;28;20033;-61
2021/05/21 03:55:13;;;;;;;0.65;0.40;;;;;;;;;;5031430;28;20158;-61
2021/05/21 03:57:38;;;;;;;0.30;0.30;;;;;;;;;;5031008;28;20491;-61
2021/05/21 04:00:05;;;;;;;0.68;0.40;;;;;;;;;;5034026;28;20038;-61
2021/05/21 04:02:31;;;;;;;0.63;0.35;;;;;;;;;;5031158;28;20029;-61
2021/05/21 04:04:56;;;;;;;1.17;0.40;;;;;;;;;;5031398;28;20038;-61
2021/05/21 04:07:22;;;;;;;0.47;0.40;;;;;;;;;;5029362;28;20036;-61
2021/05/21 04:09:47;;;;;;;0.73;0.40;;;;;;;;;;5028525;28;20091;-61
2021/05/21 04:12:13;;;;;;;2.28;0.40;;;;;;;;;;5031637;28;20092;-61
2021/05/21 04:14:38;;;;;;;1.13;0.47;;;;;;;;;;5030530;28;20501;-61
2021/05/21 04:17:04;;;;;;;1.38;0.60;;;;;;;;;;5029539;28;20820;-61
2021/05/21 04:19:29;;;;;;;0.40;0.40;;;;;;;;;;5062445;28;20033;-61
2021/05/21 04:21:55;;;;;;;0.40;0.40;;;;;;;;;;5032393;28;20036;-61
2021/05/21 04:24:20;;;;;;;0.63;0.40;;;;;;;;;;5045714;28;20493;-61
2021/05/21 04:26:46;;;;;;;0.55;0.30;;;;;;;;;;5031659;28;20029;-61
2021/05/21 04:29:11;;;;;;;0.40;0.40;;;;;;;;;;5029772;28;20033;-62
2021/05/21 04:31:37;;;;;;;1.10;0.47;;;;;;;;;;5032218;28;20120;-61
2021/05/21 04:34:02;;;;;;;0.93;0.50;;;;;;;;;;5031562;28;20033;-61
2021/05/21 04:36:28;;;;;;;1.02;0.40;;;;;;;;;;5031398;28;20902;-61
2021/05/21 04:38:53;;;;;;;1.88;0.50;;;;;;;;;;5030419;28;20088;-61
2021/05/21 04:41:19;;;;;;;1.85;0.50;;;;;;;;;;5047961;28;20044;-61
2021/05/21 04:43:45;;;;;;;1.42;0.40;;;;;;;;;;5031476;28;20030;-61
2021/05/21 04:46:11;;;;;;;0.50;0.30;;;;;;;;;;5028931;28;20096;-61
2021/05/21 04:48:37;;;;;;;0.32;0.30;;;;;;;;;;5031865;28;20095;-61
2021/05/21 04:51:02;;;;;;;0.60;0.35;;;;;;;;;;5063815;28;20030;-61
2021/05/21 04:53:28;;;;;;;1.08;0.45;;;;;;;;;;5063807;28;20064;-61
2021/05/21 04:55:53;;;;;;;0.60;0.45;;;;;;;;;;5032709;28;20482;-61
2021/05/21 04:58:19;;;;;;;1.10;0.50;;;;;;;;;;5019521;28;20048;-61
2021/05/21 05:00:44;;;;;;;0.85;0.40;;;;;;;;;;5031371;28;20041;-61
2021/05/21 05:03:12;;;;;;;1.00;0.50;;;;;;;;;;5037213;28;20052;-61
2021/05/21 05:05:38;;;;;;;0.50;0.40;;;;;;;;;;5045509;28;20041;-61
2021/05/21 05:08:03;;;;;;;0.30;0.30;;;;;;;;;;5062845;28;20040;-61
2021/05/21 05:10:29;;;;;;;1.00;0.50;;;;;;;;;;5029398;28;20034;-61
2021/05/21 05:12:55;;;;;;;0.80;0.40;;;;;;;;;;5049435;28;20053;-61
2021/05/21 05:15:20;;;;;;;0.70;0.47;;;;;;;;;;5032508;28;20037;-61
2021/05/21 05:17:48;;;;;;;0.98;0.40;;;;;;;;;;5028662;28;20778;-61
2021/05/21 05:20:14;;;;;;;1.35;0.50;;;;;;;;;;5030095;28;20073;-61
2021/05/21 05:22:40;;;;;;;1.90;0.50;;;;;;;;;;5029478;28;20037;-61
2021/05/21 05:25:06;;;;;;;0.68;0.50;;;;;;;;;;5030883;28;20033;-61
2021/05/21 05:27:31;;;;;;;0.38;0.30;;;;;;;;;;5011754;28;20600;-61
2021/05/21 05:29:58;;;;;;;1.20;0.50;;;;;;;;;;5030198;28;20034;-61
2021/05/21 05:32:24;;;;;;;0.90;0.50;;;;;;;;;;5030916;28;20084;-61
2021/05/21 05:34:49;;;;;;;1.60;0.50;;;;;;;;;;5032280;28;20253;-61
2021/05/21 05:37:15;;;;;;;1.65;0.50;;;;;;;;;;5031073;28;20041;-61
2021/05/21 05:39:41;;;;;;;1.15;0.50;;;;;;;;;;5028297;28;20044;-61
2021/05/21 05:42:06;;;;;;;0.95;0.52;;;;;;;;;;5032771;28;20041;-61
2021/05/21 05:44:31;;;;;;;1.85;0.52;;;;;;;;;;5035671;28;20033;-61
2021/05/21 05:46:57;;;;;;;2.33;0.50;;;;;;;;;;5033135;28;20052;-61
2021/05/21 05:49:22;;;;;;;0.40;0.40;;;;;;;;;;5033689;28;20100;-61
2021/05/21 05:51:48;;;;;;;0.70;0.40;;;;;;;;;;5035613;28;20063;-61
2021/05/21 05:54:13;;;;;;;0.77;0.40;;;;;;;;;;5033761;28;20045;-61
2021/05/21 05:56:39;;;;;;;0.95;0.43;;;;;;;;;;5031847;28;20038;-61
2021/05/21 05:59:04;;;;;;;0.85;0.40;;;;;;;;;;5033548;28;20033;-61
2021/05/21 06:01:30;;;;;;;1.05;0.40;;;;;;;;;;5036104;28;20546;-61
2021/05/21 06:03:55;;;;;;;0.68;0.45;;;;;;;;;;5031704;28;20041;-62
2021/05/21 06:06:21;;;;;;;1.02;0.50;;;;;;;;;;5065650;28;20663;-61
2021/05/21 06:08:46;;;;;;;1.63;0.52;;;;;;;;;;5029992;28;20564;-61
2021/05/21 06:11:12;;;;;;;1.15;0.45;;;;;;;;;;5019282;28;20045;-61
2021/05/21 06:13:37;;;;;;;0.40;0.30;;;;;;;;;;5032178;28;20041;-61
2021/05/21 06:16:03;;;;;;;0.75;0.30;;;;;;;;;;5021205;28;20201;-61
2021/05/21 06:18:28;;;;;;;0.52;0.35;;;;;;;;;;5031380;28;20070;-61
2021/05/21 06:20:54;;;;;;;0.93;0.30;;;;;;;;;;5031781;28;20036;-61
2021/05/21 06:23:19;;;;;;;0.32;0.32;;;;;;;;;;5030617;28;20486;-61
2021/05/21 06:28:11;;;;;;;0.90;0.40;;;;;;;;;;5065298;28;20588;-61
2021/05/21 06:30:37;;;;;;;1.25;0.50;;;;;;;;;;5032348;28;20041;-61
2021/05/21 06:33:02;;;;;;;0.88;0.50;;;;;;;;;;5032409;28;20048;-61
2021/05/21 06:35:28;;;;;;;1.65;0.68;;;;;;;;;;5030932;28;20545;-61
2021/05/21 06:37:54;;;;;;;0.55;0.40;;;;;;;;;;5033689;28;20038;-62
2021/05/21 06:40:19;;;;;;;1.55;0.50;;;;;;;;;;5032851;28;20479;-62
2021/05/21 06:42:45;;;;;;;1.10;0.35;;;;;;;;;;5052428;28;20034;-61
2021/05/21 06:45:11;;;;;;;1.25;0.30;;;;;;;;;;5033748;28;20521;-61
2021/05/21 06:47:36;;;;;;;0.68;0.40;;;;;;;;;;5033625;28;20045;-61
2021/05/21 06:50:03;;;;;;;0.68;0.40;;;;;;;;;;5031889;28;20037;-61
2021/05/21 06:52:28;;;;;;;0.30;0.30;;;;;;;;;;5033870;28;20876;-61
2021/05/21 06:54:54;;;;;;;0.65;0.32;;;;;;;;;;5065019;27;20064;-61
2021/05/21 06:57:19;;;;;;;0.75;0.40;;;;;;;;;;5033923;27;20048;-61
2021/05/21 06:59:45;;;;;;;1.73;0.57;;;;;;;;;;5030053;28;20029;-61
2021/05/21 07:02:10;;;;;;;0.90;0.40;;;;;;;;;;5033163;28;20045;-62
2021/05/21 07:04:36;;;;;;;1.33;0.50;;;;;;;;;;5032832;28;20045;-61
2021/05/21 07:07:02;;;;;;;0.63;0.40;;;;;;;;;;5030123;28;20050;-62
2021/05/21 07:09:27;;;;;;;1.42;0.40;;;;;;;;;;5063426;28;20088;-61
2021/05/21 07:11:52;;;;;;;2.58;0.60;;;;;;;;;;5031255;28;20413;-61
2021/05/21 07:14:18;;;;;;;1.65;0.57;;;;;;;;;;5031838;28;20061;-61
2021/05/21 07:16:43;;;;;;;1.67;0.50;;;;;;;;;;5030992;28;20034;-61
2021/05/21 07:19:13;;;;;;;0.80;0.40;;;;;;;;;;5031212;28;20057;-61
2021/05/21 07:21:38;;;;;;;1.58;0.40;;;;;;;;;;5033629;28;20022;-61
2021/05/21 07:24:04;;;;;;;0.57;0.30;;;;;;;;;;5031639;28;20045;-61
2021/05/21 07:26:31;;;;;;;0.98;0.40;;;;;;;;;;5029149;28;20076;-61
2021/05/21 07:28:57;;;;;;;1.63;0.57;;;;;;;;;;5037709;28;20041;-61
2021/05/21 07:31:27;;;;;;;0.63;0.40;;;;;;;;;;5064819;28;20478;-61
2021/05/21 07:33:55;;;;;;;1.42;0.65;;;;;;;;;;5030027;28;20144;-61
2021/05/21 07:36:23;;;;;;;1.98;0.77;;;;;;;;;;5032723;28;20022;-61
2021/05/21 07:38:51;;;;;;;0.57;0.45;;;;;;;;;;5031708;28;20041;-61
2021/05/21 07:41:21;;;;;;;1.67;0.50;;;;;;;;;;5032528;28;20038;-61
2021/05/21 07:43:47;;;;;;;0.90;0.40;;;;;;;;;;5050904;28;20073;-61
2021/05/21 07:46:12;;;;;;;1.35;0.50;;;;;;;;;;5030934;28;20456;-61
2021/05/21 07:48:38;;;;;;;0.77;0.50;;;;;;;;;;5038012;28;20052;-61
2021/05/21 07:51:03;;;;;;;0.60;0.40;;;;;;;;;;5031483;28;20356;-61
2021/05/21 07:53:33;;;;;;;1.75;0.50;;;;;;;;;;5031419;28;20091;-61
2021/05/21 07:55:59;;;;;;;1.75;0.60;;;;;;;;;;5032819;28;20044;-62
2021/05/21 07:58:25;;;;;;;0.55;0.50;;;;;;;;;;5024017;28;20073;-61
2021/05/21 08:00:52;;;;;;;1.35;0.60;;;;;;;;;;5031728;28;20025;-61
2021/05/21 08:03:19;;;;;;;1.27;0.52;;;;;;;;;;5062282;28;20040;-62
2021/05/21 08:05:44;;;;;;;1.42;0.50;;;;;;;;;;5030434;28;20097;-62
2021/05/21 08:08:10;;;;;;;1.48;0.60;;;;;;;;;;5034561;28;20411;-61
2021/05/21 08:10:35;;;;;;;2.10;0.60;;;;;;;;;;5031781;28;20041;-61
2021/05/21 08:13:04;;;;;;;2.25;0.70;;;;;;;;;;5032677;28;20457;-61
2021/05/21 08:15:29;;;;;;;1.25;0.60;;;;;;;;;;5063659;28;20025;-61
2021/05/21 08:17:55;;;;;;;1.20;0.80;;;;;;;;;;5038361;28;20046;-61
2021/05/21 08:20:20;;;;;;;1.67;0.77;;;;;;;;;;5031698;28;20052;-61
2021/05/21 08:22:47;;;;;;;1.83;0.70;;;;;;;;;;5029877;28;20044;-61
2021/05/21 08:25:13;;;;;;;0.98;0.40;;;;;;;;;;5032109;28;20121;-62
2021/05/21 08:27:39;;;;;;;1.83;0.60;;;;;;;;;;5029020;28;20115;-61
2021/05/21 08:30:05;;;;;;;3.25;0.73;;;;;;;;;;5029974;28;20034;-61
2021/05/21 08:32:30;;;;;;;2.00;0.80;;;;;;;;;;5028601;28;20675;-61
2021/05/21 08:34:56;;;;;;;2.42;0.75;;;;;;;;;;5036519;28;20033;-61
2021/05/21 08:37:21;;;;;;;1.10;0.52;;;;;;;;;;5032930;28;20038;-62
2021/05/21 08:39:48;;;;;;;1.48;0.60;;;;;;;;;;5059148;28;20080;-62
2021/05/21 08:42:13;;;;;;;2.42;0.60;;;;;;;;;;5028867;28;20029;-62
2021/05/21 08:44:43;;;;;;;2.38;0.50;;;;;;;;;;5030247;28;20545;-62
2021/05/21 08:47:08;;;;;;;1.30;0.50;;;;;;;;;;5015738;28;20030;-61
2021/05/21 08:49:34;;;;;;;2.28;0.50;;;;;;;;;;5030356;28;20046;-61
2021/05/21 08:52:03;;;;;;;1.05;0.50;;;;;;;;;;5028670;28;20037;-61
2021/05/21 08:54:34;;;;;;;1.00;0.40;;;;;;;;;;5030942;28;20038;-61
2021/05/21 08:56:59;;;;;;;2.37;0.67;;;;;;;;;;5027240;28;20093;-61
2021/05/21 08:59:25;;;;;;;3.40;1.33;;;;;;;;;;5028687;28;20497;-61
2021/05/21 09:01:55;;;;;;;2.97;0.88;;;;;;;;;;5030115;28;20030;-61
2021/05/21 09:04:20;;;;;;;6.10;2.22;;;;;;;;;;5028358;28;20041;-61
2021/05/21 09:06:46;;;;;;;6.15;2.00;;;;;;;;;;5030564;28;20034;-61
2021/05/21 09:09:12;;;;;;;2.92;1.30;;;;;;;;;;5031684;28;20096;-61
2021/05/21 09:11:42;;;;;;;1.77;0.88;;;;;;;;;;5031026;28;20045;-61
2021/05/21 09:14:18;;;;;;;2.33;0.80;;;;;;;;;;5032335;28;20030;-61
2021/05/21 09:16:45;;;;;;;2.78;0.80;;;;;;;;;;5033357;28;20117;-61
2021/05/21 09:19:20;;;;;;;1.20;0.45;;;;;;;;;;5019629;28;20041;-61
2021/05/21 09:22:00;;;;;;;1.17;0.60;;;;;;;;;;5031577;28;20041;-61
2021/05/21 09:24:48;;;;;;;1.27;0.43;;;;;;;;;;5035207;28;20042;-61
2021/05/21 09:27:15;;;;;;;0.88;0.50;;;;;;;;;;5056386;28;20070;-61
2021/05/21 09:29:47;;;;;;;1.50;0.60;;;;;;;;;;5034959;28;20107;-61
2021/05/21 09:32:29;;;;;;;1.08;0.45;;;;;;;;;;5034157;28;20053;-61
2021/05/21 09:35:02;;;;;;;;;;;;;;;;;;5033860;28;20486;-61
2021/05/21 09:37:28;;;;;;;1.55;0.52;;;;;;;;;;5034283;28;19925;-61
2021/05/21 09:40:07;;;;;;;2.50;0.70;;;;;;;;;;5032274;28;20034;-61
2021/05/21 09:42:54;;;;;;;2.63;0.80;;;;;;;;;;5036993;28;20060;-61
2021/05/21 09:45:22;;;;;;;1.63;0.70;;;;;;;;;;5042036;28;20509;-61
2021/05/21 09:47:53;;;;;;;1.15;0.68;;;;;;;;;;5033217;28;20507;-62
2021/05/21 09:50:20;;;;;;;2.58;0.85;;;;;;;;;;5033402;28;20037;-61
2021/05/21 09:52:48;;;;;;;2.00;0.50;;;;;;;;;;5048745;28;20030;-61
2021/05/21 09:55:14;;;;;;;2.13;0.60;;;;;;;;;;5035247;28;20464;-61
2021/05/21 09:57:40;;;;;;;1.05;0.57;;;;;;;;;;5030540;28;20045;-61
2021/05/21 10:00:12;;;;;;;2.58;0.77;;;;;;;;;;5035945;28;20064;-61
2021/05/21 10:02:37;;;;;;;;;;;;;;;;;;5031822;28;20142;-61
2021/05/21 10:05:05;;;;;;;1.75;0.50;;;;;;;;;;5033126;28;19968;-61
2021/05/21 10:07:30;;;;;;;4.22;0.77;;;;;;;;;;5031367;28;20049;-61
2021/05/21 10:09:56;;;;;;;1.75;0.60;;;;;;;;;;5066173;28;20042;-62
2021/05/21 10:12:21;;;;;;;2.20;0.70;;;;;;;;;;5031393;28;20085;-61
2021/05/21 10:14:51;;;;;;;1.63;0.63;;;;;;;;;;5032100;28;20042;-61
2021/05/21 10:17:18;;;;;;;2.30;0.70;;;;;;;;;;5030719;28;20124;-61
2021/05/21 10:19:44;;;;;;;1.70;0.60;;;;;;;;;;5032879;28;20053;-61
2021/05/21 10:22:09;;;;;;;3.00;0.70;;;;;;;;;;5065357;28;20045;-61
2021/05/21 10:24:37;;;;;;;2.97;0.63;;;;;;;;;;5029325;28;25836;-61
2021/05/21 10:27:04;;;;;;;2.38;0.70;;;;;;;;;;5013860;28;20514;-61
2021/05/21 10:29:33;;;;;;;1.63;0.60;;;;;;;;;;5031413;28;20108;-61
2021/05/21 10:32:29;;;;;;;3.10;0.82;;;;;;;;;;5033620;28;20042;-61
2021/05/21 10:34:54;;;;;;;2.95;0.88;;;;;;;;;;5030610;28;20124;-62
2021/05/21 10:37:41;;;;;;;2.55;1.17;;;;;;;;;;5033067;28;20049;-61
2021/05/21 10:40:29;;;;;;;5.45;2.35;;;;;;;;;;5033865;28;20042;-61
2021/05/21 10:43:16;;;;;;;5.85;2.03;;;;;;;;;;5026645;28;20129;-61
2021/05/21 10:45:54;;;;;;;1.98;0.80;;;;;;;;;;5047179;28;20065;-61
2021/05/21 10:48:25;;;;;;;2.17;0.75;;;;;;;;;;5030352;28;20081;-61
2021/05/21 10:51:11;;;;;;;2.28;0.63;;;;;;;;;;5018394;28;20139;-61
2021/05/21 10:53:46;;;;;;;3.83;0.98;;;;;;;;;;5033124;28;20050;-61
2021/05/21 10:56:15;;;;;;;2.78;0.80;;;;;;;;;;5032314;28;20486;-61
2021/05/21 10:58:53;;;;;;;2.78;0.75;;;;;;;;;;5031554;28;20094;-62
2021/05/21 11:01:25;;;;;;;2.72;0.85;;;;;;;;;;5033146;28;20596;-61
2021/05/21 11:04:05;;;;;;;3.72;0.82;;;;;;;;;;5035087;28;20037;-61
2021/05/21 11:06:46;;;;;;;2.08;0.82;;;;;;;;;;5041486;28;20041;-62
2021/05/21 11:09:13;;;;;;;3.28;0.90;;;;;;;;;;5019109;28;20045;-61
2021/05/21 11:12:01;;;;;;;2.38;0.85;;;;;;;;;;5046904;28;20486;-61
2021/05/21 11:14:39;;;;;;;2.95;0.90;;;;;;;;;;5031131;28;20112;-61
2021/05/21 11:17:10;;;;;;;2.85;0.82;;;;;;;;;;5032223;28;20037;-61
2021/05/21 11:19:36;;;;;;;2.85;0.90;;;;;;;;;;5032101;28;20058;-61
2021/05/21 11:22:06;;;;;;;2.63;0.95;;;;;;;;;;5023040;28;20033;-61
2021/05/21 11:24:36;;;;;;;2.22;0.70;;;;;;;;;;5063703;28;20030;-61
2021/05/21 11:27:02;;;;;;;3.63;0.80;;;;;;;;;;5032587;28;20041;-60
2021/05/21 11:29:28;;;;;;;2.88;1.00;;;;;;;;;;5030983;28;20034;-61
2021/05/21 11:31:53;;;;;;;3.47;0.93;;;;;;;;;;5030889;28;20040;-61
2021/05/21 11:34:19;;;;;;;3.22;1.00;;;;;;;;;;5032081;28;20044;-61
2021/05/21 11:36:44;;;;;;;3.70;0.90;;;;;;;;;;5033316;28;20056;-61
2021/05/21 11:39:10;;;;;;;2.42;0.75;;;;;;;;;;5030137;28;20044;-61
2021/05/21 11:41:39;;;;;;;5.05;1.10;;;;;;;;;;5032643;28;20041;-62
2021/05/21 11:44:10;;;;;;;4.10;0.88;;;;;;;;;;5031863;28;20036;-61
2021/05/21 11:46:43;;;;;;;2.85;0.82;;;;;;;;;;5031506;28;20037;-61
2021/05/21 11:49:09;;;;;;;2.80;0.80;;;;;;;;;;5047855;28;20089;-61
2021/05/21 11:51:35;;;;;;;2.65;0.90;;;;;;;;;;5039691;28;20025;-61
2021/05/21 11:54:04;;;;;;;3.85;0.90;;;;;;;;;;5028490;28;20042;-61
2021/05/21 11:56:34;;;;;;;2.97;0.90;;;;;;;;;;5063808;28;20042;-62
2021/05/21 11:59:01;;;;;;;2.38;0.95;;;;;;;;;;5030166;28;20038;-61
2021/05/21 12:01:27;;;;;;;3.70;1.05;;;;;;;;;;5029948;28;20120;-61
2021/05/21 12:03:52;;;;;;;2.55;0.82;;;;;;;;;;5030695;28;20072;-61
2021/05/21 12:06:18;;;;;;;2.20;0.80;;;;;;;;;;5031159;28;20029;-61
2021/05/21 12:08:47;;;;;;;2.80;0.52;;;;;;;;;;5032404;28;20042;-61
2021/05/21 12:11:13;;;;;;;2.58;0.82;;;;;;;;;;5062155;28;20033;-61
2021/05/21 12:13:39;;;;;;;3.03;0.93;;;;;;;;;;5013724;28;20756;-61
2021/05/21 12:16:24;;;;;;;3.60;0.88;;;;;;;;;;5029502;28;20037;-61
2021/05/21 12:18:50;;;;;;;1.95;0.70;;;;;;;;;;5030896;28;20042;-61
2021/05/21 12:21:20;;;;;;;2.72;0.90;;;;;;;;;;5028858;28;20121;-61
2021/05/21 12:23:46;;;;;;;2.78;0.80;;;;;;;;;;5031581;28;20090;-61
2021/05/21 12:26:11;;;;;;;1.95;0.60;;;;;;;;;;5040122;28;20095;-62
2021/05/21 12:28:37;;;;;;;4.82;1.13;;;;;;;;;;5047077;28;20124;-61
2021/05/21 12:31:03;;;;;;;2.15;0.80;;;;;;;;;;5029304;28;20052;-61
2021/05/21 12:33:30;;;;;;;3.30;1.02;;;;;;;;;;5030747;28;20066;-61
2021/05/21 12:36:04;;;;;;;3.05;0.98;;;;;;;;;;5029775;28;20029;-61
2021/05/21 12:38:30;;;;;;;4.03;1.00;;;;;;;;;;5029531;28;20243;-61
2021/05/21 12:40:57;;;;;;;4.53;1.10;;;;;;;;;;5029344;28;20657;-62
2021/05/21 12:43:24;;;;;;;3.78;0.80;;;;;;;;;;5030703;28;20060;-61
2021/05/21 12:46:02;;;;;;;1.98;0.70;;;;;;;;;;5048298;28;20679;-61
2021/05/21 12:48:32;;;;;;;3.30;0.93;;;;;;;;;;5030129;28;20478;-61
2021/05/21 12:51:18;;;;;;;2.15;0.70;;;;;;;;;;5029904;28;20041;-61
2021/05/21 12:53:43;;;;;;;4.32;0.90;;;;;;;;;;5029323;28;20041;-62
2021/05/21 12:56:09;;;;;;;4.15;1.10;;;;;;;;;;5028726;28;20022;-61
2021/05/21 12:58:40;;;;;;;1.45;0.68;;;;;;;;;;5030571;28;20111;-62
2021/05/21 13:01:05;;;;;;;2.88;0.90;;;;;;;;;;5029887;28;20037;-61
2021/05/21 13:03:53;;;;;;;2.38;0.88;;;;;;;;;;5030153;28;20038;-61
2021/05/21 13:06:29;;;;;;;3.17;0.90;;;;;;;;;;5031754;28;20034;-61
2021/05/21 13:08:56;;;;;;;1.90;0.50;;;;;;;;;;5029990;28;20517;-61
2021/05/21 13:11:21;;;;;;;4.05;1.05;;;;;;;;;;5029398;28;20073;-62
2021/05/21 13:13:47;;;;;;;4.10;0.90;;;;;;;;;;5030996;28;20046;-61
2021/05/21 13:16:12;;;;;;;3.42;0.82;;;;;;;;;;5027312;28;20792;-61
2021/05/21 13:18:39;;;;;;;3.40;1.27;;;;;;;;;;5029501;28;20542;-62
2021/05/21 13:21:09;;;;;;;3.00;0.82;;;;;;;;;;5036081;28;20129;-61
2021/05/21 13:23:35;;;;;;;2.80;0.90;;;;;;;;;;5030445;28;20029;-61
2021/05/21 13:26:04;;;;;;;4.30;0.90;;;;;;;;;;5030282;28;20244;-61
2021/05/21 13:28:38;;;;;;;2.92;0.90;;;;;;;;;;5030235;28;20557;-63
2021/05/21 13:31:03;;;;;;;2.30;0.70;;;;;;;;;;5062363;28;20114;-61
2021/05/21 13:33:28;;;;;;;2.30;0.95;;;;;;;;;;5045781;28;20727;-61
2021/05/21 13:35:54;;;;;;;3.15;0.90;;;;;;;;;;5062586;28;20034;-62
2021/05/21 13:38:22;;;;;;;3.10;0.88;;;;;;;;;;5030104;28;20512;-61
2021/05/21 13:40:48;;;;;;;2.65;1.00;;;;;;;;;;5027795;28;20129;-61
2021/05/21 13:43:17;;;;;;;4.43;1.10;;;;;;;;;;5037866;28;20285;-61
2021/05/21 13:45:43;;;;;;;3.53;1.08;;;;;;;;;;5029416;28;20048;-61
2021/05/21 13:48:08;;;;;;;3.42;1.08;;;;;;;;;;5061568;28;20053;-62
2021/05/21 13:50:34;;;;;;;2.88;0.88;;;;;;;;;;5032187;28;20045;-62
2021/05/21 13:53:00;;;;;;;3.53;1.05;;;;;;;;;;5031886;28;20033;-63
2021/05/21 13:55:25;;;;;;;4.53;1.40;;;;;;;;;;5029777;28;20046;-62
2021/05/21 13:57:51;;;;;;;3.45;1.13;;;;;;;;;;5029111;28;20059;-62
2021/05/21 14:00:17;;;;;;;3.13;0.75;;;;;;;;;;5029883;28;20399;-62
2021/05/21 14:02:43;;;;;;;2.65;0.70;;;;;;;;;;5031504;28;20030;-62
2021/05/21 14:05:09;;;;;;;2.22;0.70;;;;;;;;;;5031860;28;20538;-62
2021/05/21 14:07:35;;;;;;;5.07;1.00;;;;;;;;;;5036363;28;20050;-62
2021/05/21 14:10:00;;;;;;;2.25;0.80;;;;;;;;;;5031693;28;20022;-62
2021/05/21 14:12:26;;;;;;;3.17;0.80;;;;;;;;;;5031930;28;20809;-63
2021/05/21 14:14:52;;;;;;;2.38;0.95;;;;;;;;;;5031394;28;20033;-62
2021/05/21 14:17:18;;;;;;;3.58;1.40;;;;;;;;;;5031836;28;20037;-63
2021/05/21 14:19:47;;;;;;;3.15;1.27;;;;;;;;;;5030544;28;20641;-62
2021/05/21 14:22:20;;;;;;;4.15;1.10;;;;;;;;;;5031896;28;20121;-62
2021/05/21 14:24:46;;;;;;;2.40;0.95;;;;;;;;;;5050082;28;20045;-62
2021/05/21 14:27:11;;;;;;;3.92;1.00;;;;;;;;;;5032082;28;20370;-62
2021/05/21 14:29:37;;;;;;;4.18;1.00;;;;;;;;;;5030996;28;20030;-62
2021/05/21 14:32:03;;;;;;;3.10;0.82;;;;;;;;;;5030978;28;20033;-62
2021/05/21 14:34:30;;;;;;;3.58;1.25;;;;;;;;;;5030926;28;20472;-62
2021/05/21 14:36:55;;;;;;;3.55;1.00;;;;;;;;;;5030018;28;20033;-62
2021/05/21 14:39:21;;;;;;;2.60;0.70;;;;;;;;;;5029072;28;20379;-62
2021/05/21 14:41:47;;;;;;;2.85;1.10;;;;;;;;;;5036683;28;20033;-62
2021/05/21 14:44:13;;;;;;;2.35;0.82;;;;;;;;;;5031048;28;20423;-62
2021/05/21 14:46:39;;;;;;;2.30;0.75;;;;;;;;;;5030284;28;20478;-62